Time,TemperatureF,DewpointF,PressureIn,WindDirection,WindDirectionDegrees,WindSpeedMPH,WindSpeedGustMPH,Humidity,HourlyPrecipIn,Conditions,Clouds,dailyrainin,SolarRadiationWatts/m^2,SoftwareType,DateUTC
2013-09-04 00:02:00,60.0,54.2,29.97,SSW,193,0.0,2.0,81,0.00,,CLR,0.00,0.00,VWS V14.01,2013-09-04 05:02:00,
2013-09-04 00:07:00,60.0,53.8,29.97,SSW,193,0.0,2.0,80,0.00,,CLR,0.00,0.00,VWS V14.01,2013-09-04 05:07:00,
2013-09-04 00:12:00,60.1,53.9,29.96,SSW,193,0.0,2.0,80,0.00,,CLR,0.00,0.00,VWS V14.01,2013-09-04 05:12:00,
2013-09-04 00:17:00,60.2,54.0,29.96,SSW,193,0.0,2.0,80,0.00,,CLR,0.00,0.00,VWS V14.01,2013-09-04 05:17:00,
2013-09-04 00:22:00,60.0,54.2,29.96,SSW,193,0.0,2.0,81,0.00,,CLR,0.00,0.00,VWS V14.01,2013-09-04 05:22:00,
2013-09-04 00:27:00,59.8,54.3,29.96,SSW,193,0.0,2.0,82,0.00,,CLR,0.00,0.00,VWS V14.01,2013-09-04 05:27:00,
2013-09-04 00:32:00,59.6,54.1,29.96,SSW,193,0.0,1.0,82,0.00,,CLR,0.00,0.00,VWS V14.01,2013-09-04 05:32:00,
2013-09-04 00:37:00,59.6,53.8,29.97,SSW,193,0.0,1.0,81,0.00,,CLR,0.00,0.00,VWS V14.01,2013-09-04 05:37:00,
2013-09-04 00:42:00,59.6,53.8,29.97,SSW,193,0.0,2.0,81,0.00,,CLR,0.00,0.00,VWS V14.01,2013-09-04 05:42:00,
2013-09-04 00:47:00,59.6,53.8,29.97,SSW,193,0.0,2.0,81,0.00,,CLR,0.00,0.00,VWS V14.01,2013-09-04 05:47:00,
2013-09-04 00:52:00,59.6,53.8,29.97,SSW,193,2.0,2.0,81,0.00,,CLR,0.00,0.00,VWS V14.01,2013-09-04 05:52:00,
2013-09-04 00:57:00,59.6,53.8,29.97,SSW,193,0.0,2.0,81,0.00,,CLR,0.00,0.00,VWS V14.01,2013-09-04 05:57:00,
2013-09-04 01:02:00,59.7,53.9,29.96,WSW,258,0.0,3.0,81,0.00,,CLR,0.00,0.00,VWS V14.01,2013-09-04 06:02:00,
2013-09-04 01:07:00,59.6,53.8,29.96,WNW,288,0.0,3.0,81,0.00,,CLR,0.00,0.00,VWS V14.01,2013-09-04 06:07:00,
2013-09-04 01:12:00,59.7,53.5,29.96,WNW,288,0.0,3.0,80,0.00,,CLR,0.00,0.00,VWS V14.01,2013-09-04 06:12:00,
2013-09-04 01:17:00,59.8,53.6,29.96,SW,233,1.0,3.0,80,0.00,,CLR,0.00,0.00,VWS V14.01,2013-09-04 06:17:00,
2013-09-04 01:22:00,59.9,53.7,29.96,SW,233,0.0,3.0,80,0.00,,CLR,0.00,0.00,VWS V14.01,2013-09-04 06:22:00,
2013-09-04 01:27:00,60.0,53.8,29.96,SW,233,0.0,3.0,80,0.00,,CLR,0.00,0.00,VWS V14.01,2013-09-04 06:27:00,
2013-09-04 01:32:00,60.0,53.8,29.96,SW,233,0.0,2.0,80,0.00,,CLR,0.00,0.00,VWS V14.01,2013-09-04 06:32:00,
2013-09-04 01:37:00,59.8,53.6,29.96,SW,233,0.0,2.0,80,0.00,,CLR,0.00,0.00,VWS V14.01,2013-09-04 06:37:00,
2013-09-04 01:42:00,59.7,53.9,29.96,SW,233,1.0,2.0,81,0.00,,CLR,0.00,0.00,VWS V14.01,2013-09-04 06:42:00,
2013-09-04 01:47:00,59.5,54.0,29.96,SW,217,0.0,2.0,82,0.00,,CLR,0.00,0.00,VWS V14.01,2013-09-04 06:47:00,
2013-09-04 01:52:00,59.3,53.8,29.96,SW,217,2.0,2.0,82,0.00,,CLR,0.00,0.00,VWS V14.01,2013-09-04 06:52:00,
2013-09-04 01:57:00,59.1,54.0,29.96,SSW,211,0.0,2.0,83,0.00,,CLR,0.00,0.00,VWS V14.01,2013-09-04 06:57:00,
2013-09-04 02:02:00,58.9,53.8,29.96,SSW,211,0.0,0.0,83,0.00,,CLR,0.00,0.00,VWS V14.01,2013-09-04 07:02:00,
2013-09-04 02:07:00,58.9,53.8,29.96,SSW,211,0.0,1.0,83,0.00,,CLR,0.00,0.00,VWS V14.01,2013-09-04 07:07:00,
2013-09-04 02:12:00,58.8,53.7,29.96,SSW,211,0.0,1.0,83,0.00,,CLR,0.00,0.00,VWS V14.01,2013-09-04 07:12:00,
2013-09-04 02:17:00,58.8,53.7,29.96,SSW,211,0.0,1.0,83,0.00,,CLR,0.00,0.00,VWS V14.01,2013-09-04 07:17:00,
2013-09-04 02:22:00,58.4,53.3,29.96,SSW,211,0.0,1.0,83,0.00,,CLR,0.00,0.00,VWS V14.01,2013-09-04 07:22:00,
2013-09-04 02:27:00,58.0,53.2,29.96,SSW,211,0.0,1.0,84,0.00,,CLR,0.00,0.00,VWS V14.01,2013-09-04 07:27:00,
2013-09-04 02:32:00,57.7,52.9,29.96,SSW,211,0.0,0.0,84,0.00,,CLR,0.00,0.00,VWS V14.01,2013-09-04 07:32:00,
2013-09-04 02:37:00,57.3,52.8,29.96,SSW,211,0.0,0.0,85,0.00,,CLR,0.00,0.00,VWS V14.01,2013-09-04 07:37:00,
2013-09-04 02:42:00,57.2,53.1,29.96,SSW,211,0.0,1.0,86,0.00,,CLR,0.00,0.00,VWS V14.01,2013-09-04 07:42:00,
2013-09-04 02:47:00,57.1,53.0,29.96,SSW,211,0.0,1.0,86,0.00,,CLR,0.00,0.00,VWS V14.01,2013-09-04 07:47:00,
2013-09-04 02:52:00,57.2,53.1,29.96,SSW,211,0.0,1.0,86,0.00,,CLR,0.00,0.00,VWS V14.01,2013-09-04 07:52:00,
2013-09-04 02:57:00,57.3,53.2,29.96,SSW,211,0.0,1.0,86,0.00,,CLR,0.00,0.00,VWS V14.01,2013-09-04 07:57:00,
2013-09-04 03:02:00,57.1,53.0,29.97,SSW,211,0.0,0.0,86,0.00,,CLR,0.00,0.00,VWS V14.01,2013-09-04 08:02:00,
2013-09-04 03:07:00,57.1,53.3,29.97,SSW,211,0.0,0.0,87,0.00,,CLR,0.00,0.00,VWS V14.01,2013-09-04 08:07:00,
2013-09-04 03:12:00,57.2,53.4,29.97,SSW,211,0.0,0.0,87,0.00,,CLR,0.00,0.00,VWS V14.01,2013-09-04 08:12:00,
2013-09-04 03:17:00,57.2,53.4,29.97,SSW,211,0.0,0.0,87,0.00,,CLR,0.00,0.00,VWS V14.01,2013-09-04 08:17:00,
2013-09-04 03:22:00,57.2,53.1,29.97,SSW,211,0.0,0.0,86,0.00,,CLR,0.00,0.00,VWS V14.01,2013-09-04 08:22:00,
2013-09-04 03:27:00,57.1,53.0,29.97,SSW,211,0.0,0.0,86,0.00,,CLR,0.00,0.00,VWS V14.01,2013-09-04 08:27:00,
2013-09-04 03:32:00,57.1,53.3,29.97,SSW,211,0.0,1.0,87,0.00,,CLR,0.00,0.00,VWS V14.01,2013-09-04 08:32:00,
2013-09-04 03:37:00,57.3,53.5,29.97,SSW,211,0.0,1.0,87,0.00,,CLR,0.00,0.00,VWS V14.01,2013-09-04 08:37:00,
2013-09-04 03:42:00,57.4,53.6,29.97,SSW,211,0.0,1.0,87,0.00,,CLR,0.00,0.00,VWS V14.01,2013-09-04 08:42:00,
2013-09-04 03:47:00,57.4,53.6,29.97,SSW,211,0.0,1.0,87,0.00,,CLR,0.00,0.00,VWS V14.01,2013-09-04 08:47:00,
2013-09-04 03:52:00,57.3,53.5,29.97,SSW,211,0.0,1.0,87,0.00,,CLR,0.00,0.00,VWS V14.01,2013-09-04 08:52:00,
2013-09-04 03:57:00,57.3,53.5,29.97,SSW,211,0.0,1.0,87,0.00,,CLR,0.00,0.00,VWS V14.01,2013-09-04 08:57:00,
2013-09-04 04:02:00,57.3,53.5,29.97,SSW,211,0.0,1.0,87,0.00,,CLR,0.00,0.00,VWS V14.01,2013-09-04 09:02:00,
2013-09-04 04:07:00,57.3,53.5,29.97,SSW,211,0.0,1.0,87,0.00,,CLR,0.00,0.00,VWS V14.01,2013-09-04 09:07:00,
2013-09-04 04:12:00,57.3,53.5,29.97,SSW,211,0.0,1.0,87,0.00,,CLR,0.00,0.00,VWS V14.01,2013-09-04 09:12:00,
2013-09-04 04:17:00,57.3,53.5,29.97,SSW,211,0.0,1.0,87,0.00,,CLR,0.00,0.00,VWS V14.01,2013-09-04 09:17:00,
2013-09-04 04:22:00,57.2,53.4,29.97,SSW,211,0.0,1.0,87,0.00,,CLR,0.00,0.00,VWS V14.01,2013-09-04 09:22:00,
2013-09-04 04:27:00,57.2,53.4,29.97,SSW,211,0.0,1.0,87,0.00,,CLR,0.00,0.00,VWS V14.01,2013-09-04 09:27:00,
2013-09-04 04:32:00,56.9,52.8,29.97,SSW,211,0.0,1.0,86,0.00,,CLR,0.00,0.00,VWS V14.01,2013-09-04 09:32:00,
2013-09-04 04:37:00,57.0,53.5,29.97,SSW,211,0.0,1.0,88,0.00,,CLR,0.00,0.00,VWS V14.01,2013-09-04 09:37:00,
2013-09-04 04:42:00,57.0,53.5,29.98,SSW,211,0.0,1.0,88,0.00,,CLR,0.00,0.00,VWS V14.01,2013-09-04 09:42:00,
2013-09-04 04:47:00,56.8,53.0,29.98,SSW,211,0.0,1.0,87,0.00,,CLR,0.00,0.00,VWS V14.01,2013-09-04 09:47:00,
2013-09-04 04:52:00,56.7,52.9,29.98,SSW,211,0.0,1.0,87,0.00,,CLR,0.00,0.00,VWS V14.01,2013-09-04 09:52:00,
2013-09-04 04:57:00,56.8,53.3,29.98,SSW,211,0.0,1.0,88,0.00,,CLR,0.00,0.00,VWS V14.01,2013-09-04 09:57:00,
2013-09-04 05:02:00,57.0,53.5,29.98,SSW,211,0.0,0.0,88,0.00,,CLR,0.00,0.00,VWS V14.01,2013-09-04 10:02:00,
2013-09-04 05:07:00,57.1,53.6,29.98,SSW,211,0.0,1.0,88,0.00,,CLR,0.00,0.00,VWS V14.01,2013-09-04 10:07:00,
2013-09-04 05:12:00,56.8,53.0,29.98,SSW,211,0.0,1.0,87,0.00,,CLR,0.00,0.00,VWS V14.01,2013-09-04 10:12:00,
2013-09-04 05:17:00,56.9,53.4,29.98,SSW,211,0.0,1.0,88,0.00,,CLR,0.00,0.00,VWS V14.01,2013-09-04 10:17:00,
2013-09-04 05:22:00,56.9,53.4,29.98,SSW,211,0.0,1.0,88,0.00,,CLR,0.00,0.00,VWS V14.01,2013-09-04 10:22:00,
2013-09-04 05:27:00,57.0,53.8,29.98,SSW,211,0.0,1.0,89,0.00,,CLR,0.00,0.00,VWS V14.01,2013-09-04 10:27:00,
2013-09-04 05:32:00,56.7,52.9,29.98,SSW,211,0.0,0.0,87,0.00,,CLR,0.00,0.00,VWS V14.01,2013-09-04 10:32:00,
2013-09-04 05:37:00,56.8,53.6,29.98,SSW,211,0.0,1.0,89,0.00,,CLR,0.00,0.00,VWS V14.01,2013-09-04 10:37:00,
2013-09-04 05:42:00,57.0,53.8,29.98,SSW,211,0.0,1.0,89,0.00,,CLR,0.00,0.00,VWS V14.01,2013-09-04 10:42:00,
2013-09-04 05:47:00,57.1,53.9,29.98,SSW,211,0.0,1.0,89,0.00,,CLR,0.00,0.00,VWS V14.01,2013-09-04 10:47:00,
2013-09-04 05:52:00,57.2,54.0,29.98,SSW,211,0.0,1.0,89,0.00,,CLR,0.00,0.00,VWS V14.01,2013-09-04 10:52:00,
2013-09-04 05:57:00,57.3,54.1,29.99,SSW,211,0.0,1.0,89,0.00,,CLR,0.00,0.00,VWS V14.01,2013-09-04 10:57:00,
2013-09-04 06:02:00,57.4,54.2,29.98,SSW,211,0.0,0.0,89,0.00,,CLR,0.00,0.00,VWS V14.01,2013-09-04 11:02:00,
2013-09-04 06:07:00,57.7,54.2,29.99,SSW,211,1.0,1.0,88,0.00,,CLR,0.00,0.00,VWS V14.01,2013-09-04 11:07:00,
2013-09-04 06:12:00,57.9,54.4,29.99,SSW,211,0.0,1.0,88,0.00,,CLR,0.00,0.00,VWS V14.01,2013-09-04 11:12:00,
2013-09-04 06:17:00,58.2,54.7,29.99,SSW,211,1.0,1.0,88,0.00,,CLR,0.00,0.00,VWS V14.01,2013-09-04 11:17:00,
2013-09-04 06:22:00,58.3,54.5,29.99,SW,216,0.0,1.0,87,0.00,,CLR,0.00,0.00,VWS V14.01,2013-09-04 11:22:00,
2013-09-04 06:27:00,58.4,54.5,30.00,SW,216,0.0,1.0,87,0.00,,CLR,0.00,0.00,VWS V14.01,2013-09-04 11:27:00,
2013-09-04 06:32:00,58.4,54.5,29.99,SW,216,0.0,1.0,87,0.00,,CLR,0.00,0.00,VWS V14.01,2013-09-04 11:32:00,
2013-09-04 06:37:00,58.4,54.5,30.00,SW,216,0.0,1.0,87,0.00,,CLR,0.00,5.00,VWS V14.01,2013-09-04 11:37:00,
2013-09-04 06:42:00,58.5,54.7,30.00,SW,216,2.0,2.0,87,0.00,,CLR,0.00,7.00,VWS V14.01,2013-09-04 11:42:00,
2013-09-04 06:47:00,58.5,55.0,30.00,SW,216,0.0,2.0,88,0.00,,CLR,0.00,9.00,VWS V14.01,2013-09-04 11:47:00,
2013-09-04 06:52:00,58.5,55.0,30.00,SW,216,1.0,2.0,88,0.00,,CLR,0.00,11.00,VWS V14.01,2013-09-04 11:52:00,
2013-09-04 06:57:00,58.5,55.0,30.00,SW,216,1.0,2.0,88,0.00,,CLR,0.00,14.00,VWS V14.01,2013-09-04 11:57:00,
2013-09-04 07:02:00,58.6,55.1,30.00,SW,216,0.0,2.0,88,0.00,,CLR,0.00,18.00,VWS V14.01,2013-09-04 12:02:00,
2013-09-04 07:07:00,58.6,55.1,30.00,SW,216,0.0,2.0,88,0.00,,CLR,0.00,25.00,VWS V14.01,2013-09-04 12:07:00,
2013-09-04 07:12:00,58.6,55.1,30.01,SW,216,0.0,2.0,88,0.00,,CLR,0.00,28.00,VWS V14.01,2013-09-04 12:12:00,
2013-09-04 07:17:00,58.6,55.1,30.01,SW,216,0.0,2.0,88,0.00,,CLR,0.00,39.00,VWS V14.01,2013-09-04 12:17:00,
2013-09-04 07:22:00,58.5,55.0,30.00,SW,216,0.0,2.0,88,0.00,,CLR,0.00,40.00,VWS V14.01,2013-09-04 12:22:00,
2013-09-04 07:27:00,58.2,54.4,30.01,SW,216,0.0,2.0,87,0.00,,CLR,0.00,49.00,VWS V14.01,2013-09-04 12:27:00,
2013-09-04 07:32:00,58.1,54.6,30.01,SW,216,0.0,0.0,88,0.00,,CLR,0.00,47.00,VWS V14.01,2013-09-04 12:32:00,
2013-09-04 07:37:00,58.2,55.0,30.01,SW,216,0.0,0.0,89,0.00,,CLR,0.00,58.00,VWS V14.01,2013-09-04 12:37:00,
2013-09-04 07:42:00,58.3,55.1,30.00,SW,216,0.0,0.0,89,0.00,,CLR,0.00,63.00,VWS V14.01,2013-09-04 12:42:00,
2013-09-04 07:47:00,58.5,55.3,30.00,SW,216,0.0,1.0,89,0.00,,CLR,0.00,72.00,VWS V14.01,2013-09-04 12:47:00,
2013-09-04 07:52:00,58.7,55.5,30.01,SW,216,0.0,1.0,89,0.00,,CLR,0.00,72.00,VWS V14.01,2013-09-04 12:52:00,
2013-09-04 07:57:00,59.1,55.9,30.00,SW,216,2.0,4.0,89,0.00,,CLR,0.00,83.00,VWS V14.01,2013-09-04 12:57:00,
2013-09-04 08:02:00,59.5,56.3,30.01,SW,216,0.0,1.0,89,0.00,,CLR,0.00,74.00,VWS V14.01,2013-09-04 13:02:00,
2013-09-04 08:07:00,59.9,56.7,30.01,South,185,1.0,4.0,89,0.00,,CLR,0.00,114.00,VWS V14.01,2013-09-04 13:07:00,
2013-09-04 08:12:00,60.4,57.2,30.01,SSW,204,1.0,4.0,89,0.00,,CLR,0.00,98.00,VWS V14.01,2013-09-04 13:12:00,
2013-09-04 08:17:00,60.7,57.1,30.01,SSW,211,1.0,4.0,88,0.00,,CLR,0.00,120.00,VWS V14.01,2013-09-04 13:17:00,
2013-09-04 08:22:00,61.1,57.5,30.01,SSW,211,0.0,4.0,88,0.00,,CLR,0.00,118.00,VWS V14.01,2013-09-04 13:22:00,
2013-09-04 08:27:00,61.4,57.5,30.01,SSW,211,1.0,4.0,87,0.00,,CLR,0.00,116.00,VWS V14.01,2013-09-04 13:27:00,
2013-09-04 08:32:00,61.7,58.1,30.01,SSW,211,1.0,2.0,88,0.00,,CLR,0.00,125.00,VWS V14.01,2013-09-04 13:32:00,
2013-09-04 08:37:00,62.0,58.1,30.01,West,263,3.0,4.0,87,0.00,,CLR,0.00,141.00,VWS V14.01,2013-09-04 13:37:00,
2013-09-04 08:43:00,62.3,58.1,30.01,NW,305,1.0,4.0,86,0.00,,CLR,0.00,153.00,VWS V14.01,2013-09-04 13:43:00,
2013-09-04 08:48:00,62.5,58.3,30.01,NW,305,0.0,4.0,86,0.00,,CLR,0.00,142.00,VWS V14.01,2013-09-04 13:48:00,
2013-09-04 08:53:00,62.6,58.0,30.01,West,261,0.0,4.0,85,0.00,,CLR,0.00,151.00,VWS V14.01,2013-09-04 13:53:00,
2013-09-04 08:58:00,62.8,58.2,30.02,West,261,1.0,4.0,85,0.00,,CLR,0.00,165.00,VWS V14.01,2013-09-04 13:58:00,
2013-09-04 09:03:00,63.0,58.8,30.02,West,261,0.0,2.0,86,0.00,,CLR,0.00,183.00,VWS V14.01,2013-09-04 14:03:00,
2013-09-04 09:08:00,63.3,58.7,30.02,West,261,1.0,2.0,85,0.00,,CLR,0.00,178.00,VWS V14.01,2013-09-04 14:08:00,
2013-09-04 09:13:00,63.5,58.9,30.02,West,261,0.0,2.0,85,0.00,,CLR,0.00,188.00,VWS V14.01,2013-09-04 14:13:00,
2013-09-04 09:18:00,63.8,59.2,30.02,WNW,284,2.0,4.0,85,0.00,,CLR,0.00,181.00,VWS V14.01,2013-09-04 14:18:00,
2013-09-04 09:23:00,64.1,59.5,30.02,WNW,288,0.0,4.0,85,0.00,,CLR,0.00,176.00,VWS V14.01,2013-09-04 14:23:00,
2013-09-04 09:28:00,64.3,59.4,30.02,WNW,300,1.0,4.0,84,0.00,,CLR,0.00,271.00,VWS V14.01,2013-09-04 14:28:00,
2013-09-04 09:33:00,64.7,59.8,30.02,WNW,300,0.0,3.0,84,0.00,,CLR,0.00,232.00,VWS V14.01,2013-09-04 14:33:00,
2013-09-04 09:38:00,65.1,60.2,30.02,WNW,300,0.0,3.0,84,0.00,,CLR,0.00,313.00,VWS V14.01,2013-09-04 14:38:00,
2013-09-04 09:43:00,65.8,60.8,30.02,West,275,3.0,5.0,84,0.00,,CLR,0.00,399.00,VWS V14.01,2013-09-04 14:43:00,
2013-09-04 09:48:00,66.5,61.2,30.02,WNW,285,0.0,5.0,83,0.00,,CLR,0.00,260.00,VWS V14.01,2013-09-04 14:48:00,
2013-09-04 09:53:00,66.7,61.0,30.02,WNW,285,0.0,5.0,82,0.00,,CLR,0.00,415.00,VWS V14.01,2013-09-04 14:53:00,
2013-09-04 09:58:00,67.0,61.0,30.02,NW,306,1.0,5.0,81,0.00,,CLR,0.00,213.00,VWS V14.01,2013-09-04 14:58:00,
2013-09-04 10:03:00,67.2,61.5,30.02,NW,306,0.0,1.0,82,0.00,,CLR,0.00,165.00,VWS V14.01,2013-09-04 15:03:00,
2013-09-04 10:08:00,67.3,61.6,30.02,NW,306,0.0,2.0,82,0.00,,CLR,0.00,192.00,VWS V14.01,2013-09-04 15:08:00,
2013-09-04 10:13:00,67.4,61.7,30.02,NW,306,0.0,2.0,82,0.00,,CLR,0.00,179.00,VWS V14.01,2013-09-04 15:13:00,
2013-09-04 10:18:00,67.4,61.4,30.02,NW,306,0.0,2.0,81,0.00,,CLR,0.00,309.00,VWS V14.01,2013-09-04 15:18:00,
2013-09-04 10:23:00,67.6,61.6,30.03,NW,306,0.0,2.0,81,0.00,,CLR,0.00,301.00,VWS V14.01,2013-09-04 15:23:00,
2013-09-04 10:28:00,67.9,61.9,30.03,NW,314,0.0,4.0,81,0.00,,CLR,0.00,186.00,VWS V14.01,2013-09-04 15:28:00,
2013-09-04 10:33:00,68.2,61.8,30.03,NW,314,0.0,2.0,80,0.00,,CLR,0.00,155.00,VWS V14.01,2013-09-04 15:33:00,
2013-09-04 10:38:00,68.5,62.1,30.03,NW,314,0.0,2.0,80,0.00,,CLR,0.00,183.00,VWS V14.01,2013-09-04 15:38:00,
2013-09-04 10:43:00,68.7,61.9,30.03,NW,314,0.0,2.0,79,0.00,,CLR,0.00,134.00,VWS V14.01,2013-09-04 15:43:00,
2013-09-04 10:48:00,69.0,62.6,30.03,NW,314,1.0,2.0,80,0.00,,CLR,0.00,95.00,VWS V14.01,2013-09-04 15:48:00,
2013-09-04 10:53:00,69.3,62.9,30.03,NW,314,1.0,3.0,80,0.00,,CLR,0.00,93.00,VWS V14.01,2013-09-04 15:53:00,
2013-09-04 10:58:00,69.7,63.3,30.03,NNW,348,0.0,3.0,80,0.00,,CLR,0.00,125.00,VWS V14.01,2013-09-04 15:58:00,
2013-09-04 11:03:00,70.2,63.8,30.03,NW,315,0.0,3.0,80,0.00,,CLR,0.00,102.00,VWS V14.01,2013-09-04 16:03:00,
2013-09-04 11:08:00,70.8,64.0,30.03,NW,315,1.0,3.0,79,0.00,,CLR,0.00,125.00,VWS V14.01,2013-09-04 16:08:00,
2013-09-04 11:13:00,71.3,63.7,30.03,NW,316,0.0,3.0,77,0.00,,CLR,0.00,195.00,VWS V14.01,2013-09-04 16:13:00,
2013-09-04 11:18:00,72.0,64.8,30.04,NW,309,2.0,4.0,78,0.00,,CLR,0.00,297.00,VWS V14.01,2013-09-04 16:18:00,
2013-09-04 11:23:00,72.5,64.9,30.04,NW,309,0.0,4.0,77,0.00,,CLR,0.00,322.00,VWS V14.01,2013-09-04 16:23:00,
2013-09-04 11:28:00,72.8,64.4,30.04,WNW,288,0.0,4.0,75,0.00,,CLR,0.00,253.00,VWS V14.01,2013-09-04 16:28:00,
2013-09-04 11:33:00,73.1,64.7,30.04,WNW,290,0.0,2.0,75,0.00,,CLR,0.00,230.00,VWS V14.01,2013-09-04 16:33:00,
2013-09-04 11:38:00,73.6,65.2,30.04,WNW,294,0.0,3.0,75,0.00,,CLR,0.00,260.00,VWS V14.01,2013-09-04 16:38:00,
2013-09-04 11:43:00,73.9,65.5,30.04,WNW,294,0.0,3.0,75,0.00,,CLR,0.00,186.00,VWS V14.01,2013-09-04 16:43:00,
2013-09-04 11:48:00,74.1,65.3,30.04,WNW,294,0.0,3.0,74,0.00,,CLR,0.00,163.00,VWS V14.01,2013-09-04 16:48:00,
2013-09-04 11:53:00,74.5,65.7,30.04,WNW,294,0.0,3.0,74,0.00,,CLR,0.00,276.00,VWS V14.01,2013-09-04 16:53:00,
2013-09-04 11:58:00,75.4,66.5,30.04,West,276,1.0,3.0,74,0.00,,CLR,0.00,250.00,VWS V14.01,2013-09-04 16:58:00,
2013-09-04 12:03:00,75.7,65.6,30.04,NW,325,0.0,3.0,71,0.00,,CLR,0.00,230.00,VWS V14.01,2013-09-04 17:03:00,
2013-09-04 12:08:00,75.4,65.8,30.04,NW,325,0.0,3.0,72,0.00,,CLR,0.00,260.00,VWS V14.01,2013-09-04 17:08:00,
2013-09-04 12:13:00,75.5,66.6,30.04,NW,325,0.0,3.0,74,0.00,,CLR,0.00,687.00,VWS V14.01,2013-09-04 17:13:00,
2013-09-04 12:18:00,76.0,66.7,30.04,NW,325,0.0,3.0,73,0.00,,CLR,0.00,752.00,VWS V14.01,2013-09-04 17:18:00,
2013-09-04 12:23:00,76.5,67.2,30.04,NW,325,0.0,3.0,73,0.00,,CLR,0.00,708.00,VWS V14.01,2013-09-04 17:23:00,
2013-09-04 12:28:00,76.9,66.8,30.04,WNW,290,0.0,3.0,71,0.00,,CLR,0.00,861.00,VWS V14.01,2013-09-04 17:28:00,
2013-09-04 12:33:00,77.5,66.5,30.04,NW,310,0.0,6.0,69,0.00,,CLR,0.00,821.00,VWS V14.01,2013-09-04 17:33:00,
2013-09-04 12:38:00,77.8,66.0,30.04,NNW,327,0.0,6.0,67,0.00,,CLR,0.00,392.00,VWS V14.01,2013-09-04 17:38:00,
2013-09-04 12:43:00,77.5,66.1,30.04,WNW,299,0.0,6.0,68,0.00,,CLR,0.00,362.00,VWS V14.01,2013-09-04 17:43:00,
2013-09-04 12:48:00,77.1,66.2,30.04,NW,306,2.0,6.0,69,0.00,,CLR,0.00,367.00,VWS V14.01,2013-09-04 17:48:00,
2013-09-04 12:53:00,77.0,66.9,30.04,NE,34,1.0,6.0,71,0.00,,CLR,0.00,487.00,VWS V14.01,2013-09-04 17:53:00,
2013-09-04 12:58:00,77.1,66.2,30.04,NW,317,0.0,6.0,69,0.00,,CLR,0.00,645.00,VWS V14.01,2013-09-04 17:58:00,
2013-09-04 13:03:00,77.2,65.4,30.04,WNW,294,3.0,5.0,67,0.00,,CLR,0.00,425.00,VWS V14.01,2013-09-04 18:03:00,
2013-09-04 13:08:00,76.8,67.1,30.04,WNW,284,0.0,6.0,72,0.00,,CLR,0.00,425.00,VWS V14.01,2013-09-04 18:08:00,
2013-09-04 13:13:00,77.1,66.6,30.04,NNE,24,0.0,6.0,70,0.00,,CLR,0.00,744.00,VWS V14.01,2013-09-04 18:13:00,
2013-09-04 13:18:00,77.3,65.9,30.04,WNW,298,3.0,6.0,68,0.00,,CLR,0.00,686.00,VWS V14.01,2013-09-04 18:18:00,
2013-09-04 13:23:00,77.5,67.4,30.04,NNW,348,1.0,6.0,71,0.00,,CLR,0.00,714.00,VWS V14.01,2013-09-04 18:23:00,
2013-09-04 13:28:00,77.9,66.5,30.04,NW,309,0.0,6.0,68,0.00,,CLR,0.00,682.00,VWS V14.01,2013-09-04 18:28:00,
2013-09-04 13:33:00,78.4,67.4,30.03,NW,310,2.0,2.0,69,0.00,,CLR,0.00,701.00,VWS V14.01,2013-09-04 18:33:00,
2013-09-04 13:38:00,78.8,66.5,30.04,NW,309,5.0,5.0,66,0.00,,CLR,0.00,715.00,VWS V14.01,2013-09-04 18:38:00,
2013-09-04 13:43:00,78.8,66.5,30.04,NW,309,0.0,5.0,66,0.00,,CLR,0.00,696.00,VWS V14.01,2013-09-04 18:43:00,
2013-09-04 13:48:00,78.6,65.4,30.03,NW,309,0.0,5.0,64,0.00,,CLR,0.00,703.00,VWS V14.01,2013-09-04 18:48:00,
2013-09-04 13:53:00,78.9,66.6,30.03,NW,309,0.0,5.0,66,0.00,,CLR,0.00,726.00,VWS V14.01,2013-09-04 18:53:00,
2013-09-04 13:58:00,78.9,66.2,30.03,WNW,288,2.0,6.0,65,0.00,,CLR,0.00,719.00,VWS V14.01,2013-09-04 18:58:00,
2013-09-04 14:03:00,78.9,67.0,30.03,WNW,294,1.0,5.0,67,0.00,,CLR,0.00,628.00,VWS V14.01,2013-09-04 19:03:00,
2013-09-04 14:08:00,79.4,67.5,30.03,North,9,0.0,5.0,67,0.00,,CLR,0.00,578.00,VWS V14.01,2013-09-04 19:08:00,
2013-09-04 14:13:00,79.3,66.5,30.03,NNW,340,0.0,5.0,65,0.00,,CLR,0.00,517.00,VWS V14.01,2013-09-04 19:13:00,
2013-09-04 14:18:00,79.0,67.1,30.03,NW,305,4.0,5.0,67,0.00,,CLR,0.00,715.00,VWS V14.01,2013-09-04 19:18:00,
2013-09-04 14:23:00,79.1,67.6,30.03,NW,305,0.0,5.0,68,0.00,,CLR,0.00,682.00,VWS V14.01,2013-09-04 19:23:00,
2013-09-04 14:28:00,79.3,67.0,30.03,NW,305,0.0,5.0,66,0.00,,CLR,0.00,543.00,VWS V14.01,2013-09-04 19:28:00,
2013-09-04 14:33:00,79.2,66.9,30.03,NNW,342,0.0,7.0,66,0.00,,CLR,0.00,480.00,VWS V14.01,2013-09-04 19:33:00,
2013-09-04 14:38:00,78.8,67.4,30.03,NNW,341,0.0,7.0,68,0.00,,CLR,0.00,763.00,VWS V14.01,2013-09-04 19:38:00,
2013-09-04 14:43:00,79.0,67.1,30.03,NNW,332,0.0,7.0,67,0.00,,CLR,0.00,719.00,VWS V14.01,2013-09-04 19:43:00,
2013-09-04 14:48:00,79.6,67.7,30.03,ENE,69,0.0,7.0,67,0.00,,CLR,0.00,722.00,VWS V14.01,2013-09-04 19:48:00,
2013-09-04 14:53:00,79.7,66.9,30.03,NNE,16,1.0,7.0,65,0.00,,CLR,0.00,708.00,VWS V14.01,2013-09-04 19:53:00,
2013-09-04 14:58:00,79.7,66.5,30.03,NNW,340,0.0,7.0,64,0.00,,CLR,0.00,652.00,VWS V14.01,2013-09-04 19:58:00,
2013-09-04 15:03:00,79.5,66.7,30.03,SE,124,1.0,4.0,65,0.00,,CLR,0.00,643.00,VWS V14.01,2013-09-04 20:03:00,
2013-09-04 15:08:00,79.5,65.8,30.03,WNW,297,2.0,4.0,63,0.00,,CLR,0.00,670.00,VWS V14.01,2013-09-04 20:08:00,
2013-09-04 15:13:00,79.7,66.5,30.03,WNW,294,1.0,4.0,64,0.00,,CLR,0.00,638.00,VWS V14.01,2013-09-04 20:13:00,
2013-09-04 15:18:00,79.8,65.2,30.02,North,355,3.0,4.0,61,0.00,,CLR,0.00,652.00,VWS V14.01,2013-09-04 20:18:00,
2013-09-04 15:23:00,79.7,65.5,30.02,NW,321,1.0,4.0,62,0.00,,CLR,0.00,621.00,VWS V14.01,2013-09-04 20:23:00,
2013-09-04 15:28:00,79.5,64.9,30.02,NW,311,0.0,4.0,61,0.00,,CLR,0.00,612.00,VWS V14.01,2013-09-04 20:28:00,
2013-09-04 15:33:00,79.4,63.8,30.02,West,277,0.0,3.0,59,0.00,,CLR,0.00,649.00,VWS V14.01,2013-09-04 20:33:00,
2013-09-04 15:38:00,79.5,63.9,30.02,NE,55,2.0,4.0,59,0.00,,CLR,0.00,271.00,VWS V14.01,2013-09-04 20:38:00,
2013-09-04 15:43:00,79.2,63.7,30.02,NE,56,0.0,5.0,59,0.00,,CLR,0.00,552.00,VWS V14.01,2013-09-04 20:43:00,
2013-09-04 15:48:00,79.3,64.7,30.02,NW,317,1.0,5.0,61,0.00,,CLR,0.00,425.00,VWS V14.01,2013-09-04 20:48:00,
2013-09-04 15:53:00,79.7,64.1,30.02,NW,317,2.0,5.0,59,0.00,,CLR,0.00,403.00,VWS V14.01,2013-09-04 20:53:00,
2013-09-04 15:58:00,79.9,64.3,30.02,NW,312,2.0,5.0,59,0.00,,CLR,0.00,624.00,VWS V14.01,2013-09-04 20:58:00,
2013-09-04 16:03:00,79.9,64.3,30.02,NW,312,0.0,1.0,59,0.00,,CLR,0.00,575.00,VWS V14.01,2013-09-04 21:03:00,
2013-09-04 16:08:00,80.4,64.3,30.02,NW,323,0.0,5.0,58,0.00,,CLR,0.00,547.00,VWS V14.01,2013-09-04 21:08:00,
2013-09-04 16:13:00,80.9,64.8,30.01,NW,313,0.0,6.0,58,0.00,,CLR,0.00,494.00,VWS V14.01,2013-09-04 21:13:00,
2013-09-04 16:18:00,81.0,64.8,30.01,ENE,73,1.0,6.0,58,0.00,,CLR,0.00,529.00,VWS V14.01,2013-09-04 21:18:00,
2013-09-04 16:23:00,81.0,64.3,30.01,NE,52,0.0,8.0,57,0.00,,CLR,0.00,526.00,VWS V14.01,2013-09-04 21:23:00,
2013-09-04 16:28:00,80.6,64.0,30.01,NNW,336,0.0,8.0,57,0.00,,CLR,0.00,490.00,VWS V14.01,2013-09-04 21:28:00,
2013-09-04 16:33:00,80.5,63.9,30.01,West,281,4.0,6.0,57,0.00,,CLR,0.00,494.00,VWS V14.01,2013-09-04 21:33:00,
2013-09-04 16:38:00,80.2,64.1,30.01,NW,304,5.0,7.0,58,0.00,,CLR,0.00,494.00,VWS V14.01,2013-09-04 21:38:00,
2013-09-04 16:43:00,80.1,64.0,30.01,NNW,328,0.0,7.0,58,0.00,,CLR,0.00,462.00,VWS V14.01,2013-09-04 21:43:00,
2013-09-04 16:48:00,80.4,64.3,30.01,NNW,327,1.0,7.0,58,0.00,,CLR,0.00,473.00,VWS V14.01,2013-09-04 21:48:00,
2013-09-04 16:53:00,80.7,63.6,30.01,NNW,331,0.0,7.0,56,0.00,,CLR,0.00,455.00,VWS V14.01,2013-09-04 21:53:00,
2013-09-04 16:58:00,80.8,64.7,30.01,ENE,69,1.0,7.0,58,0.00,,CLR,0.00,450.00,VWS V14.01,2013-09-04 21:58:00,
2013-09-04 17:03:00,80.8,63.7,30.01,NNW,333,1.0,1.0,56,0.00,,CLR,0.00,429.00,VWS V14.01,2013-09-04 22:03:00,
2013-09-04 17:08:00,80.8,63.7,30.01,NNW,333,0.0,1.0,56,0.00,,CLR,0.00,392.00,VWS V14.01,2013-09-04 22:08:00,
2013-09-04 17:13:00,80.8,64.2,30.01,NNW,333,0.0,1.0,57,0.00,,CLR,0.00,134.00,VWS V14.01,2013-09-04 22:13:00,
2013-09-04 17:18:00,80.7,64.1,30.01,NNW,333,0.0,1.0,57,0.00,,CLR,0.00,380.00,VWS V14.01,2013-09-04 22:18:00,
2013-09-04 17:23:00,80.8,65.2,30.01,North,9,0.0,3.0,59,0.00,,CLR,0.00,367.00,VWS V14.01,2013-09-04 22:23:00,
2013-09-04 17:28:00,80.7,64.1,30.01,North,5,1.0,3.0,57,0.00,,CLR,0.00,320.00,VWS V14.01,2013-09-04 22:28:00,
2013-09-04 17:33:00,80.5,64.4,30.01,North,5,0.0,1.0,58,0.00,,CLR,0.00,338.00,VWS V14.01,2013-09-04 22:33:00,
2013-09-04 17:38:00,80.5,64.4,30.01,WNW,294,0.0,2.0,58,0.00,,CLR,0.00,327.00,VWS V14.01,2013-09-04 22:38:00,
2013-09-04 17:43:00,80.5,64.4,30.01,WNW,294,0.0,2.0,58,0.00,,CLR,0.00,323.00,VWS V14.01,2013-09-04 22:43:00,
2013-09-04 17:48:00,80.7,65.1,30.01,WNW,294,0.0,2.0,59,0.00,,CLR,0.00,323.00,VWS V14.01,2013-09-04 22:48:00,
2013-09-04 17:53:00,80.7,64.6,30.01,WNW,294,0.0,2.0,58,0.00,,CLR,0.00,262.00,VWS V14.01,2013-09-04 22:53:00,
2013-09-04 17:58:00,80.5,65.3,30.01,WNW,299,0.0,2.0,60,0.00,,CLR,0.00,227.00,VWS V14.01,2013-09-04 22:58:00,
2013-09-04 18:03:00,80.1,65.4,30.01,WNW,299,0.0,0.0,61,0.00,,CLR,0.00,135.00,VWS V14.01,2013-09-04 23:03:00,
2013-09-04 18:08:00,79.5,64.9,30.01,WNW,299,0.0,0.0,61,0.00,,CLR,0.00,142.00,VWS V14.01,2013-09-04 23:08:00,
2013-09-04 18:13:00,78.9,64.8,30.02,WNW,299,0.0,0.0,62,0.00,,CLR,0.00,167.00,VWS V14.01,2013-09-04 23:13:00,
2013-09-04 18:18:00,78.4,64.3,30.02,WNW,299,0.0,0.0,62,0.00,,CLR,0.00,151.00,VWS V14.01,2013-09-04 23:18:00,
2013-09-04 18:23:00,78.1,64.5,30.02,WNW,299,0.0,0.0,63,0.00,,CLR,0.00,105.00,VWS V14.01,2013-09-04 23:23:00,
2013-09-04 18:28:00,77.6,64.5,30.02,WNW,299,0.0,0.0,64,0.00,,CLR,0.00,120.00,VWS V14.01,2013-09-04 23:28:00,
2013-09-04 18:33:00,77.3,64.2,30.02,WNW,299,0.0,1.0,64,0.00,,CLR,0.00,134.00,VWS V14.01,2013-09-04 23:33:00,
2013-09-04 18:38:00,77.0,63.9,30.02,WNW,299,0.0,1.0,64,0.00,,CLR,0.00,114.00,VWS V14.01,2013-09-04 23:38:00,
2013-09-04 18:43:00,76.7,64.5,30.02,WNW,299,0.0,1.0,66,0.00,,CLR,0.00,84.00,VWS V14.01,2013-09-04 23:43:00,
2013-09-04 18:48:00,76.0,62.5,30.02,WNW,299,0.0,1.0,63,0.00,,CLR,0.00,56.00,VWS V14.01,2013-09-04 23:48:00,
2013-09-04 18:53:00,75.3,61.8,30.02,South,185,0.0,1.0,63,0.00,,CLR,0.00,62.00,VWS V14.01,2013-09-04 23:53:00,
2013-09-04 18:58:00,74.8,61.8,30.02,South,185,0.0,1.0,64,0.00,,CLR,0.00,33.00,VWS V14.01,2013-09-04 23:58:00,
2013-09-04 19:03:00,74.1,61.2,30.02,South,185,0.0,0.0,64,0.00,,CLR,0.00,18.00,VWS V14.01,2013-09-05 00:03:00,
2013-09-04 19:08:00,73.4,60.9,30.03,South,185,0.0,1.0,65,0.00,,CLR,0.00,16.00,VWS V14.01,2013-09-05 00:08:00,
2013-09-04 19:13:00,72.7,59.8,30.03,South,185,0.0,1.0,64,0.00,,CLR,0.00,12.00,VWS V14.01,2013-09-05 00:13:00,
2013-09-04 19:18:00,72.2,59.8,30.03,South,185,0.0,1.0,65,0.00,,CLR,0.00,9.00,VWS V14.01,2013-09-05 00:18:00,
2013-09-04 19:23:00,71.7,59.3,30.03,South,185,0.0,1.0,65,0.00,,CLR,0.00,5.00,VWS V14.01,2013-09-05 00:23:00,
2013-09-04 19:28:00,71.1,59.6,30.03,South,185,0.0,1.0,67,0.00,,CLR,0.00,0.00,VWS V14.01,2013-09-05 00:28:00,
2013-09-04 19:33:00,70.6,59.5,30.03,South,185,0.0,0.0,68,0.00,,CLR,0.00,0.00,VWS V14.01,2013-09-05 00:33:00,
2013-09-04 19:38:00,70.0,59.4,30.03,South,185,0.0,1.0,69,0.00,,CLR,0.00,0.00,VWS V14.01,2013-09-05 00:38:00,
2013-09-04 19:43:00,69.4,58.8,30.03,South,185,0.0,1.0,69,0.00,,CLR,0.00,0.00,VWS V14.01,2013-09-05 00:43:00,
2013-09-04 19:48:00,69.0,58.4,30.03,South,185,0.0,1.0,69,0.00,,CLR,0.00,0.00,VWS V14.01,2013-09-05 00:48:00,
2013-09-04 19:53:00,68.8,58.2,30.04,South,185,0.0,1.0,69,0.00,,CLR,0.00,0.00,VWS V14.01,2013-09-05 00:53:00,
2013-09-04 19:58:00,68.6,58.0,30.04,South,185,0.0,1.0,69,0.00,,CLR,0.00,0.00,VWS V14.01,2013-09-05 00:58:00,
2013-09-04 20:03:00,68.2,58.0,30.04,South,185,0.0,1.0,70,0.00,,CLR,0.00,0.00,VWS V14.01,2013-09-05 01:03:00,
2013-09-04 20:08:00,67.7,58.0,30.04,South,185,0.0,1.0,71,0.00,,CLR,0.00,0.00,VWS V14.01,2013-09-05 01:08:00,
2013-09-04 20:13:00,67.4,57.3,30.04,South,185,0.0,1.0,70,0.00,,CLR,0.00,0.00,VWS V14.01,2013-09-05 01:13:00,
2013-09-04 20:18:00,67.0,58.1,30.04,South,185,0.0,1.0,73,0.00,,CLR,0.00,0.00,VWS V14.01,2013-09-05 01:18:00,
2013-09-04 20:23:00,66.2,57.7,30.04,South,185,0.0,1.0,74,0.00,,CLR,0.00,0.00,VWS V14.01,2013-09-05 01:23:00,
2013-09-04 20:28:00,65.6,57.1,30.04,South,185,0.0,1.0,74,0.00,,CLR,0.00,0.00,VWS V14.01,2013-09-05 01:28:00,
2013-09-04 20:33:00,65.2,56.7,30.04,South,185,0.0,1.0,74,0.00,,CLR,0.00,0.00,VWS V14.01,2013-09-05 01:33:00,
2013-09-04 20:38:00,65.5,56.2,30.05,South,185,0.0,1.0,72,0.00,,CLR,0.00,0.00,VWS V14.01,2013-09-05 01:38:00,
2013-09-04 20:43:00,65.6,56.0,30.05,South,185,0.0,1.0,71,0.00,,CLR,0.00,0.00,VWS V14.01,2013-09-05 01:43:00,
2013-09-04 20:48:00,65.8,55.8,30.05,South,185,0.0,1.0,70,0.00,,CLR,0.00,0.00,VWS V14.01,2013-09-05 01:48:00,
2013-09-04 20:53:00,66.1,55.7,30.05,South,185,0.0,1.0,69,0.00,,CLR,0.00,0.00,VWS V14.01,2013-09-05 01:53:00,
2013-09-04 20:58:00,66.1,55.7,30.06,South,185,0.0,0.0,69,0.00,,CLR,0.00,0.00,VWS V14.01,2013-09-05 01:58:00,
2013-09-04 21:03:00,65.9,55.8,30.06,South,185,0.0,1.0,70,0.00,,CLR,0.00,0.00,VWS V14.01,2013-09-05 02:03:00,
2013-09-04 21:08:00,65.8,55.8,30.06,South,185,0.0,1.0,70,0.00,,CLR,0.00,0.00,VWS V14.01,2013-09-05 02:08:00,
2013-09-04 21:13:00,65.7,56.0,30.06,South,185,0.0,1.0,71,0.00,,CLR,0.00,0.00,VWS V14.01,2013-09-05 02:13:00,
2013-09-04 21:18:00,65.6,55.6,30.07,South,185,0.0,1.0,70,0.00,,CLR,0.00,0.00,VWS V14.01,2013-09-05 02:18:00,
2013-09-04 21:24:00,65.3,55.7,30.07,South,185,0.0,1.0,71,0.00,,CLR,0.00,0.00,VWS V14.01,2013-09-05 02:24:00,
2013-09-04 21:28:00,64.8,55.6,30.07,South,185,0.0,0.0,72,0.00,,CLR,0.00,0.00,VWS V14.01,2013-09-05 02:28:00,
2013-09-04 21:33:00,64.5,55.7,30.07,South,185,0.0,1.0,73,0.00,,CLR,0.00,0.00,VWS V14.01,2013-09-05 02:33:00,
2013-09-04 21:39:00,64.4,55.6,30.07,South,185,0.0,1.0,73,0.00,,CLR,0.00,0.00,VWS V14.01,2013-09-05 02:39:00,
2013-09-04 21:44:00,64.1,55.3,30.07,South,185,0.0,1.0,73,0.00,,CLR,0.00,0.00,VWS V14.01,2013-09-05 02:44:00,
2013-09-04 21:49:00,63.8,55.4,30.07,South,185,0.0,1.0,74,0.00,,CLR,0.00,0.00,VWS V14.01,2013-09-05 02:49:00,
2013-09-04 21:54:00,63.6,55.5,30.07,South,184,0.0,1.0,75,0.00,,CLR,0.00,0.00,VWS V14.01,2013-09-05 02:54:00,
2013-09-04 21:59:00,63.5,55.4,30.07,South,184,0.0,0.0,75,0.00,,CLR,0.00,0.00,VWS V14.01,2013-09-05 02:59:00,
2013-09-04 22:04:00,63.5,55.4,30.07,SW,217,0.0,1.0,75,0.00,,CLR,0.00,0.00,VWS V14.01,2013-09-05 03:04:00,
2013-09-04 22:09:00,63.4,55.3,30.08,NNE,31,0.0,1.0,75,0.00,,CLR,0.00,0.00,VWS V14.01,2013-09-05 03:09:00,
2013-09-04 22:14:00,63.3,55.2,30.08,NNE,31,0.0,1.0,75,0.00,,CLR,0.00,0.00,VWS V14.01,2013-09-05 03:14:00,
2013-09-04 22:19:00,63.3,55.2,30.08,NNE,31,0.0,1.0,75,0.00,,CLR,0.00,0.00,VWS V14.01,2013-09-05 03:19:00,
2013-09-04 22:24:00,63.1,55.1,30.08,NNE,31,0.0,1.0,75,0.00,,CLR,0.00,0.00,VWS V14.01,2013-09-05 03:24:00,
2013-09-04 22:29:00,63.1,55.1,30.08,NNE,31,0.0,0.0,75,0.00,,CLR,0.00,0.00,VWS V14.01,2013-09-05 03:29:00,
2013-09-04 22:34:00,63.0,55.0,30.08,NNE,31,0.0,0.0,75,0.00,,CLR,0.00,0.00,VWS V14.01,2013-09-05 03:34:00,
2013-09-04 22:39:00,62.8,54.8,30.09,NNE,31,0.0,0.0,75,0.00,,CLR,0.00,0.00,VWS V14.01,2013-09-05 03:39:00,
2013-09-04 22:44:00,62.7,54.7,30.08,NNE,31,0.0,0.0,75,0.00,,CLR,0.00,0.00,VWS V14.01,2013-09-05 03:44:00,
2013-09-04 22:49:00,62.5,54.5,30.09,NNE,31,0.0,1.0,75,0.00,,CLR,0.00,0.00,VWS V14.01,2013-09-05 03:49:00,
2013-09-04 22:54:00,62.5,54.5,30.09,NNE,31,0.0,1.0,75,0.00,,CLR,0.00,0.00,VWS V14.01,2013-09-05 03:54:00,
2013-09-04 22:59:00,62.4,54.4,30.09,NNE,31,0.0,0.0,75,0.00,,CLR,0.00,0.00,VWS V14.01,2013-09-05 03:59:00,
2013-09-04 23:01:00,62.4,54.4,30.09,NNE,31,0.0,0.0,75,0.00,,CLR,0.00,0.00,VWS V14.01,2013-09-05 04:01:00,
2013-09-04 23:03:00,62.3,54.3,30.09,NNE,31,0.0,0.0,75,0.00,,CLR,0.00,0.00,VWS V14.01,2013-09-05 04:03:00,
2013-09-04 23:08:00,62.3,54.7,30.09,NNE,31,0.0,0.0,76,0.00,,CLR,0.00,0.00,VWS V14.01,2013-09-05 04:08:00,
2013-09-04 23:13:00,62.2,54.2,30.10,NNE,31,0.0,0.0,75,0.00,,CLR,0.00,0.00,VWS V14.01,2013-09-05 04:13:00,
2013-09-04 23:18:00,62.2,54.5,30.10,NNE,31,0.0,0.0,76,0.00,,CLR,0.00,0.00,VWS V14.01,2013-09-05 04:18:00,
2013-09-04 23:23:00,62.2,54.5,30.10,NNE,31,0.0,0.0,76,0.00,,CLR,0.00,0.00,VWS V14.01,2013-09-05 04:23:00,
2013-09-04 23:28:00,62.1,54.8,30.10,NNE,31,0.0,0.0,77,0.00,,CLR,0.00,0.00,VWS V14.01,2013-09-05 04:28:00,
2013-09-04 23:33:00,61.9,54.6,30.10,NNE,31,0.0,0.0,77,0.00,,CLR,0.00,0.00,VWS V14.01,2013-09-05 04:33:00,
2013-09-04 23:38:00,61.5,54.6,30.10,NNE,31,0.0,0.0,78,0.00,,CLR,0.00,0.00,VWS V14.01,2013-09-05 04:38:00,
2013-09-04 23:43:00,61.2,54.3,30.10,NNE,31,0.0,0.0,78,0.00,,CLR,0.00,0.00,VWS V14.01,2013-09-05 04:43:00,
2013-09-04 23:48:00,60.8,54.6,30.10,NNE,31,0.0,0.0,80,0.00,,CLR,0.00,0.00,VWS V14.01,2013-09-05 04:48:00,
2013-09-04 23:53:00,60.4,54.2,30.10,NNE,31,0.0,0.0,80,0.00,,CLR,0.00,0.00,VWS V14.01,2013-09-05 04:53:00,
2013-09-04 23:58:00,60.1,54.3,30.11,NNE,31,0.0,0.0,81,0.00,,CLR,0.00,0.00,VWS V14.01,2013-09-05 04:58:00,